Wetterdaten: Woche 13.08.07 - 19.08.07 (KW33)
Datum Zeit Temperatur Luftfeuchte Luftdruck Niederschlag
13.08.2007 00:00 14,7 C 86 % 0 hPa 0,0 l/m
13.08.2007 01:00 14,2 C 90 % 0 hPa 0,0 l/m
13.08.2007 02:00 14,0 C 92 % 0 hPa 0,0 l/m
13.08.2007 03:00 13,8 C 93 % 0 hPa 0,0 l/m
13.08.2007 04:00 13,8 C 95 % 0 hPa 0,0 l/m
13.08.2007 05:00 14,4 C 96 % 0 hPa 0,0 l/m
13.08.2007 06:00 14,6 C 97 % 0 hPa 0,0 l/m
13.08.2007 07:00 14,9 C 97 % 0 hPa 0,0 l/m
13.08.2007 08:00 16,6 C 93 % 0 hPa 0,0 l/m
13.08.2007 09:00 18,9 C 79 % 0 hPa 0,0 l/m
13.08.2007 10:00 20,3 C 66 % 0 hPa 0,0 l/m
13.08.2007 11:00 21,9 C 55 % 0 hPa 0,0 l/m
13.08.2007 12:00 21,6 C 52 % 0 hPa 0,0 l/m
13.08.2007 13:00 23,1 C 45 % 0 hPa 0,0 l/m
13.08.2007 14:00 24,4 C 41 % 0 hPa 0,0 l/m
13.08.2007 15:00 25,3 C 37 % 0 hPa 0,0 l/m
13.08.2007 16:00 25,1 C 36 % 0 hPa 0,0 l/m
13.08.2007 17:00 25,1 C 37 % 0 hPa 0,0 l/m
13.08.2007 18:00 24,6 C 40 % 0 hPa 0,0 l/m
13.08.2007 19:00 23,6 C 44 % 0 hPa 0,0 l/m
13.08.2007 20:00 21,5 C 50 % 0 hPa 0,0 l/m
13.08.2007 21:00 19,5 C 63 % 0 hPa 0,0 l/m
13.08.2007 22:00 18,2 C 72 % 0 hPa 0,0 l/m
13.08.2007 23:00 17,5 C 78 % 0 hPa 0,0 l/m
14.08.2007 00:00 16,8 C 82 % 0 hPa 0,0 l/m
14.08.2007 01:00 16,7 C 85 % 0 hPa 0,0 l/m
14.08.2007 02:00 16,5 C 87 % 0 hPa 0,0 l/m
14.08.2007 03:00 16,4 C 90 % 0 hPa 0,0 l/m
14.08.2007 04:00 15,8 C 91 % 0 hPa 0,0 l/m
14.08.2007 05:00 15,3 C 92 % 0 hPa 0,0 l/m
14.08.2007 06:00 14,9 C 94 % 0 hPa 0,0 l/m
14.08.2007 07:00 15,2 C 95 % 0 hPa 0,0 l/m
14.08.2007 08:00 15,7 C 96 % 0 hPa 0,0 l/m
14.08.2007 09:00 17,1 C 96 % 0 hPa 0,0 l/m
14.08.2007 10:00 19,4 C 87 % 0 hPa 0,0 l/m
14.08.2007 11:00 21,7 C 64 % 0 hPa 0,0 l/m
14.08.2007 12:00 23,4 C 52 % 0 hPa 0,0 l/m
14.08.2007 13:00 24,5 C 47 % 0 hPa 0,0 l/m
14.08.2007 14:00 25,8 C 44 % 0 hPa 0,0 l/m
14.08.2007 15:00 26,1 C 35 % 0 hPa 0,0 l/m
14.08.2007 16:00 25,5 C 35 % 0 hPa 0,0 l/m
14.08.2007 17:00 25,7 C 38 % 0 hPa 0,0 l/m
14.08.2007 18:00 25,8 C 38 % 0 hPa 0,0 l/m
14.08.2007 19:00 24,1 C 44 % 0 hPa 0,0 l/m
14.08.2007 20:00 21,7 C 56 % 0 hPa 0,0 l/m
14.08.2007 21:00 19,4 C 66 % 0 hPa 0,0 l/m
14.08.2007 22:00 18,1 C 73 % 0 hPa 0,0 l/m
14.08.2007 23:00 17,1 C 80 % 0 hPa 0,0 l/m
15.08.2007 00:00 16,4 C 84 % 0 hPa 0,0 l/m
15.08.2007 01:00 16,3 C 87 % 0 hPa 0,0 l/m
15.08.2007 02:00 16,2 C 87 % 0 hPa 0,0 l/m
15.08.2007 03:00 16,4 C 89 % 0 hPa 0,0 l/m
15.08.2007 04:00 17,8 C 83 % 0 hPa 0,0 l/m
15.08.2007 05:00 17,9 C 80 % 0 hPa 0,0 l/m
15.08.2007 06:00 17,9 C 82 % 0 hPa 0,0 l/m
15.08.2007 07:00 18,3 C 81 % 0 hPa 0,0 l/m
15.08.2007 08:00 20,1 C 69 % 0 hPa 0,0 l/m
15.08.2007 09:00 22,0 C 59 % 0 hPa 0,0 l/m
15.08.2007 10:00 24,2 C 47 % 0 hPa 0,0 l/m
15.08.2007 11:00 26,0 C 41 % 0 hPa 0,0 l/m
15.08.2007 12:00 27,0 C 38 % 0 hPa 0,0 l/m
15.08.2007 13:00 28,0 C 34 % 0 hPa 0,0 l/m
15.08.2007 14:00 29,5 C 31 % 0 hPa 0,0 l/m
15.08.2007 15:00 30,1 C 30 % 0 hPa 0,0 l/m
15.08.2007 16:00 30,5 C 29 % 0 hPa 0,0 l/m
15.08.2007 17:00 29,3 C 35 % 0 hPa 0,0 l/m
15.08.2007 18:00 27,9 C 45 % 0 hPa 0,0 l/m
15.08.2007 19:00 25,9 C 54 % 0 hPa 0,0 l/m
15.08.2007 20:00 23,8 C 58 % 0 hPa 0,0 l/m
15.08.2007 21:00 22,3 C 65 % 0 hPa 0,0 l/m
15.08.2007 22:00 21,7 C 67 % 0 hPa 0,0 l/m
15.08.2007 23:00 21,1 C 69 % 0 hPa 0,0 l/m
16.08.2007 00:00 20,8 C 70 % 0 hPa 0,0 l/m
16.08.2007 01:00 22,2 C 54 % 0 hPa 0,0 l/m
16.08.2007 02:00 23,0 C 50 % 0 hPa 0,0 l/m
16.08.2007 03:00 21,7 C 57 % 0 hPa 0,0 l/m
16.08.2007 04:00 21,6 C 56 % 0 hPa 0,0 l/m
16.08.2007 05:00 21,1 C 53 % 0 hPa 0,0 l/m
16.08.2007 06:00 19,6 C 65 % 0 hPa 0,0 l/m
16.08.2007 07:00 18,7 C 75 % 0 hPa 0,0 l/m
16.08.2007 08:00 17,7 C 81 % 0 hPa 0,0 l/m
16.08.2007 09:00 17,3 C 86 % 0 hPa 0,0 l/m
16.08.2007 10:00 17,0 C 79 % 0 hPa 0,0 l/m
16.08.2007 11:00 17,2 C 71 % 0 hPa 0,0 l/m
16.08.2007 12:00 16,8 C 72 % 0 hPa 1,0 l/m
16.08.2007 13:00 16,2 C 83 % 0 hPa 0,0 l/m
16.08.2007 14:00 17,2 C 87 % 0 hPa 0,0 l/m
16.08.2007 15:00 18,3 C 75 % 0 hPa 0,0 l/m
16.08.2007 16:00 18,3 C 73 % 0 hPa 0,0 l/m
16.08.2007 17:00 17,8 C 74 % 0 hPa 0,0 l/m
16.08.2007 18:00 17,2 C 78 % 0 hPa 0,0 l/m
16.08.2007 19:00 16,8 C 81 % 0 hPa 0,0 l/m
16.08.2007 20:00 16,3 C 75 % 0 hPa 0,0 l/m
16.08.2007 21:00 15,6 C 76 % 0 hPa 0,0 l/m
16.08.2007 22:00 14,9 C 83 % 0 hPa 0,0 l/m
16.08.2007 23:00 14,7 C 84 % 0 hPa 0,0 l/m
17.08.2007 00:00 14,6 C 86 % 0 hPa 0,0 l/m
17.08.2007 01:00 14,4 C 88 % 0 hPa 0,0 l/m
17.08.2007 02:00 14,1 C 91 % 0 hPa 1,0 l/m
17.08.2007 03:00 13,7 C 93 % 0 hPa 1,0 l/m
17.08.2007 04:00 13,4 C 94 % 0 hPa 0,0 l/m
17.08.2007 05:00 13,4 C 95 % 0 hPa 0,0 l/m
17.08.2007 06:00 13,3 C 96 % 0 hPa 0,0 l/m
17.08.2007 07:00 13,1 C 96 % 0 hPa 0,0 l/m
17.08.2007 08:00 13,1 C 96 % 0 hPa 0,0 l/m
17.08.2007 09:00 14,0 C 95 % 0 hPa 0,0 l/m
17.08.2007 10:00 16,9 C 81 % 0 hPa 0,0 l/m
17.08.2007 11:00 18,1 C 60 % 0 hPa 2,0 l/m
17.08.2007 12:00 18,1 C 59 % 0 hPa 0,0 l/m
17.08.2007 13:00 17,6 C 61 % 0 hPa 0,0 l/m
17.08.2007 14:00 19,6 C 49 % 0 hPa 0,0 l/m
17.08.2007 15:00 20,0 C 44 % 0 hPa 0,0 l/m
17.08.2007 16:00 16,2 C 58 % 0 hPa 0,0 l/m
17.08.2007 17:00 17,1 C 58 % 0 hPa 0,0 l/m
17.08.2007 18:00 17,2 C 53 % 0 hPa 0,0 l/m
17.08.2007 19:00 15,7 C 64 % 0 hPa 0,0 l/m
17.08.2007 20:00 15,0 C 69 % 0 hPa 0,0 l/m
17.08.2007 21:00 14,0 C 76 % 0 hPa 0,0 l/m
17.08.2007 22:00 13,7 C 81 % 0 hPa 0,0 l/m
17.08.2007 23:00 13,6 C 83 % 0 hPa 0,0 l/m
18.08.2007 00:00 13,1 C 85 % 0 hPa 0,0 l/m
18.08.2007 01:00 12,5 C 87 % 0 hPa 0,0 l/m
18.08.2007 02:00 11,7 C 89 % 0 hPa 0,0 l/m
18.08.2007 03:00 11,1 C 91 % 0 hPa 0,0 l/m
18.08.2007 04:00 10,8 C 93 % 0 hPa 0,0 l/m
18.08.2007 05:00 10,7 C 94 % 0 hPa 0,0 l/m
18.08.2007 06:00 10,5 C 95 % 0 hPa 0,0 l/m
18.08.2007 07:00 11,0 C 96 % 0 hPa 0,0 l/m
18.08.2007 08:00 13,4 C 93 % 0 hPa 0,0 l/m
18.08.2007 09:00 15,8 C 62 % 0 hPa 0,0 l/m
18.08.2007 10:00 17,4 C 47 % 0 hPa 0,0 l/m
18.08.2007 11:00 18,6 C 45 % 0 hPa 0,0 l/m
18.08.2007 12:00 19,5 C 43 % 0 hPa 0,0 l/m
18.08.2007 13:00 20,1 C 42 % 0 hPa 0,0 l/m
18.08.2007 14:00 20,7 C 40 % 0 hPa 0,0 l/m
18.08.2007 15:00 21,1 C 39 % 0 hPa 0,0 l/m
18.08.2007 16:00 21,1 C 39 % 0 hPa 0,0 l/m
18.08.2007 17:00 21,0 C 38 % 0 hPa 0,0 l/m
18.08.2007 18:00 20,6 C 41 % 0 hPa 0,0 l/m
18.08.2007 19:00 19,9 C 44 % 0 hPa 0,0 l/m
18.08.2007 20:00 17,9 C 53 % 0 hPa 0,0 l/m
18.08.2007 21:00 15,3 C 66 % 0 hPa 0,0 l/m
18.08.2007 22:00 14,1 C 72 % 0 hPa 0,0 l/m
18.08.2007 23:00 13,7 C 75 % 0 hPa 0,0 l/m
19.08.2007 00:00 13,1 C 78 % 0 hPa 0,0 l/m
19.08.2007 01:00 12,6 C 82 % 0 hPa 0,0 l/m
19.08.2007 02:00 12,2 C 84 % 0 hPa 0,0 l/m
19.08.2007 03:00 12,1 C 85 % 0 hPa 0,0 l/m
19.08.2007 04:00 11,8 C 87 % 0 hPa 0,0 l/m
19.08.2007 05:00 11,3 C 88 % 0 hPa 0,0 l/m
19.08.2007 06:00 10,8 C 91 % 0 hPa 0,0 l/m
19.08.2007 07:00 10,7 C 92 % 0 hPa 0,0 l/m
19.08.2007 08:00 13,1 C 91 % 0 hPa 0,0 l/m
19.08.2007 09:00 16,2 C 76 % 0 hPa 0,0 l/m
19.08.2007 10:00 18,7 C 64 % 0 hPa 0,0 l/m
19.08.2007 11:00 20,9 C 52 % 0 hPa 0,0 l/m
19.08.2007 12:00 21,7 C 47 % 0 hPa 0,0 l/m
19.08.2007 13:00 21,9 C 44 % 0 hPa 0,0 l/m
19.08.2007 14:00 22,4 C 39 % 0 hPa 0,0 l/m
19.08.2007 15:00 21,8 C 39 % 0 hPa 0,0 l/m
19.08.2007 16:00 22,9 C 35 % 0 hPa 0,0 l/m
19.08.2007 17:00 22,2 C 40 % 0 hPa 0,0 l/m
19.08.2007 18:00 20,2 C 45 % 0 hPa 0,0 l/m
19.08.2007 19:00 19,2 C 56 % 0 hPa 0,0 l/m
19.08.2007 20:00 17,7 C 65 % 0 hPa 0,0 l/m
19.08.2007 21:00 16,1 C 71 % 0 hPa 0,0 l/m
19.08.2007 22:00 15,1 C 71 % 0 hPa 1,0 l/m
19.08.2007 23:00 13,5 C 81 % 0 hPa 0,0 l/m
Min-Datum _ 18.08.07 15.08.07 13.08.07 -
_ Min-Zeit 06:49 14:45 00:00 -
Minimum _ 10,3 C 29 % 0 hPa -
Max-Datum _ 15.08.07 13.08.07 13.08.07 17.08.07
_ Max-Zeit 16:24 05:44 00:00 11:22
Maximum _ 30,7 C 97 % 0 hPa 2,0 l/m
Durchschnitt _ 18,3 C 68 % 0 hPa #6,0 l/m

Durchschnitt Minimum Temp.17,8 C
Durchschnitt Maximum Temp.18,8 C